Time;durP1;ratioP1;P1;durP2;ratioP2;P2;SDS_P1;SDS_P2;PMS_P1;PMS_P2;Temp;Humidity;BMP_temperature;BMP_pressure;BME280_temperature;BME280_humidity;BME280_pressure;Samples;Min_cycle;Max_cycle;Signal;HPM_P1;HPM_P2
2022/04/17 00:00:12;;;;;;;3.53;2.95;;;;;;;18.26;40.53;99309.47;5114072;28;20023;-37
2022/04/17 00:02:37;;;;;;;6.97;3.30;;;;;;;18.24;40.29;99311.59;5113921;28;20382;-37
2022/04/17 00:05:04;;;;;;;4.53;3.17;;;;;;;17.97;40.89;99309.06;5113675;28;20047;-37
2022/04/17 00:07:30;;;;;;;5.05;3.50;;;;;;;17.92;41.30;99309.84;5113747;28;20027;-37
2022/04/17 00:09:56;;;;;;;4.93;3.30;;;;;;;18.29;40.21;99298.13;5113387;28;20379;-37
2022/04/17 00:12:23;;;;;;;5.47;3.47;;;;;;;17.85;40.92;99298.50;5113527;28;20027;-37
2022/04/17 00:14:49;;;;;;;7.13;3.40;;;;;;;17.88;41.33;99307.97;5113327;28;20034;-37
2022/04/17 00:17:15;;;;;;;5.88;3.67;;;;;;;18.29;40.37;99308.09;5113772;28;20022;-37
2022/04/17 00:19:40;;;;;;;5.95;3.80;;;;;;;17.77;41.66;99305.19;5112853;28;20387;-37
2022/04/17 00:22:06;;;;;;;4.60;3.35;;;;;;;17.52;42.26;99305.03;5113712;28;20026;-38
2022/04/17 00:24:31;;;;;;;4.72;3.45;;;;;;;17.83;41.56;99300.63;5113403;28;20038;-37
2022/04/17 00:26:59;;;;;;;7.97;3.40;;;;;;;17.81;41.91;99308.16;5113421;28;20183;-37
2022/04/17 00:29:25;;;;;;;8.02;3.70;;;;;;;17.42;42.12;99304.97;5113562;28;20019;-37
2022/04/17 00:31:51;;;;;;;6.57;3.80;;;;;;;17.86;41.57;99308.22;5113274;28;20020;-37
2022/04/17 00:34:16;;;;;;;8.73;3.40;;;;;;;17.85;41.28;99308.47;5113201;27;20046;-37
2022/04/17 00:36:41;;;;;;;6.53;3.42;;;;;;;17.34;42.84;99298.19;5113319;28;20030;-37
2022/04/17 00:39:07;;;;;;;5.38;3.70;;;;;;;17.95;41.51;99308.50;5113519;28;20519;-37
2022/04/17 00:41:32;;;;;;;6.57;3.83;;;;;;;17.80;41.83;99295.78;5113292;28;20042;-37
2022/04/17 00:43:58;;;;;;;6.15;3.70;;;;;;;17.30;43.21;99302.47;5112075;28;20095;-37
2022/04/17 00:46:23;;;;;;;7.18;3.97;;;;;;;17.93;41.92;99306.09;5112815;28;20043;-37
2022/04/17 00:48:49;;;;;;;5.25;3.85;;;;;;;18.19;41.79;99306.19;5113191;28;20020;-37
2022/04/17 00:51:16;;;;;;;5.43;3.97;;;;;;;17.41;43.60;99306.03;5112798;28;20093;-37
2022/04/17 00:53:44;;;;;;;6.03;3.63;;;;;;;17.72;43.02;99307.03;5112872;28;20536;-37
2022/04/17 00:56:10;;;;;;;7.10;3.73;;;;;;;17.88;42.36;99295.31;5112916;28;20023;-37
2022/04/17 00:58:37;;;;;;;6.13;3.50;;;;;;;17.27;43.73;99308.34;5112952;28;20460;-37
2022/04/17 01:01:02;;;;;;;5.20;3.58;;;;;;;17.57;43.13;99299.69;5113052;28;20110;-38
2022/04/17 01:03:28;;;;;;;5.00;3.60;;;;;;;17.95;42.28;99303.13;5112619;28;20058;-37
2022/04/17 01:05:54;;;;;;;8.57;3.78;;;;;;;17.19;43.74;99297.03;5112615;28;20120;-38
2022/04/17 01:08:20;;;;;;;6.32;3.75;;;;;;;17.00;45.29;99293.09;5112960;28;20474;-38
2022/04/17 01:10:46;;;;;;;7.60;3.75;;;;;;;17.75;43.61;99303.81;5112520;28;20022;-37
2022/04/17 01:13:12;;;;;;;8.70;3.63;;;;;;;17.03;45.16;99303.34;5112198;28;20019;-37
2022/04/17 01:15:38;;;;;;;4.95;3.28;;;;;;;16.56;45.81;99304.78;5112435;28;20028;-37
2022/04/17 01:18:04;;;;;;;7.15;3.80;;;;;;;17.54;43.83;99308.28;5112122;28;20080;-38
2022/04/17 01:20:30;;;;;;;5.13;3.92;;;;;;;17.28;44.66;99304.59;5112402;28;20026;-37
2022/04/17 01:26:56;;;;;;;4.07;3.65;;;;;;;16.84;46.18;99297.53;5112383;28;20019;-37
2022/04/17 01:28:34;;;;;;;7.82;3.80;;;;;;;17.32;44.64;99300.31;5088448;28;20568;-37
2022/04/17 01:30:59;;;;;;;8.93;3.67;;;;;;;17.02;45.61;99291.00;5113240;28;20023;-37
2022/04/17 01:33:25;;;;;;;6.10;3.88;;;;;;;17.77;43.82;99294.41;5112759;28;20031;-37
2022/04/17 01:35:50;;;;;;;7.93;3.70;;;;;;;17.39;45.01;99292.84;5111763;28;20043;-37
2022/04/17 01:38:16;;;;;;;5.50;4.10;;;;;;;17.33;45.04;99310.03;5112712;28;20023;-37
2022/04/17 01:40:42;;;;;;;5.85;3.92;;;;;;;17.87;43.74;99311.72;5112552;28;20030;-38
2022/04/17 01:43:11;;;;;;;10.02;3.90;;;;;;;17.06;45.21;99293.94;5112712;28;20064;-37
2022/04/17 01:45:37;;;;;;;7.03;4.10;;;;;;;16.53;47.73;99302.59;5111793;28;20015;-37
2022/04/17 01:48:03;;;;;;;6.35;4.20;;;;;;;17.32;46.27;99305.72;5112292;28;20337;-37
2022/04/17 01:50:30;;;;;;;6.03;4.20;;;;;;;17.03;45.41;99291.78;5112390;28;20042;-37
2022/04/17 01:52:59;;;;;;;7.15;4.05;;;;;;;16.59;47.18;99300.78;5112423;28;20023;-37
2022/04/17 01:55:25;;;;;;;6.65;4.15;;;;;;;17.32;44.58;99290.38;5110973;28;20058;-37
2022/04/17 01:57:51;;;;;;;8.30;4.15;;;;;;;16.97;45.26;99289.06;5112111;28;20075;-37
2022/04/17 02:00:17;;;;;;;8.20;4.30;;;;;;;16.36;48.32;99289.25;5112427;28;20501;-37
2022/04/17 02:02:43;;;;;;;6.70;3.95;;;;;;;17.26;46.19;99282.53;5112440;28;20031;-37
2022/04/17 02:05:09;;;;;;;24.02;16.48;;;;;;;16.85;46.50;99277.69;5112041;28;20047;-37
2022/04/17 02:07:36;;;;;;;6.95;3.90;;;;;;;16.44;46.22;99279.13;5111942;28;20038;-38
2022/04/17 02:10:03;;;;;;;9.75;4.43;;;;;;;17.28;44.87;99283.09;5112301;28;20084;-37
2022/04/17 02:12:29;;;;;;;4.75;3.85;;;;;;;16.95;45.61;99275.06;5112019;28;20019;-37
2022/04/17 02:14:54;;;;;;;6.25;3.60;;;;;;;16.45;47.06;99268.16;5111846;28;20375;-37
2022/04/17 02:17:20;;;;;;;6.43;4.00;;;;;;;17.11;45.40;99278.66;5111532;28;20038;-37
2022/04/17 02:19:45;;;;;;;5.88;3.60;;;;;;;17.13;45.25;99279.22;5112087;28;20475;-37
2022/04/17 02:22:10;;;;;;;5.63;4.00;;;;;;;16.60;45.94;99270.16;5112209;28;20554;-37
2022/04/17 02:24:36;;;;;;;10.73;3.88;;;;;;;16.96;45.88;99273.19;5111542;28;20450;-37
2022/04/17 02:27:01;;;;;;;7.22;3.67;;;;;;;16.90;45.38;99275.00;5112301;28;20031;-37
2022/04/17 02:29:27;;;;;;;6.70;3.67;;;;;;;16.23;46.85;99274.34;5111617;28;20142;-37
2022/04/17 02:31:52;;;;;;;5.63;3.90;;;;;;;16.64;46.79;99282.03;5111776;28;20032;-37
2022/04/17 02:34:17;;;;;;;7.05;3.83;;;;;;;17.15;44.79;99290.56;5111396;28;20020;-37
2022/04/17 02:36:43;;;;;;;5.43;3.70;;;;;;;16.51;46.90;99287.81;5111560;28;20027;-37
2022/04/17 02:39:08;;;;;;;9.27;4.15;;;;;;;16.73;46.90;99293.91;5111434;28;20023;-37
2022/04/17 02:41:34;;;;;;;5.75;3.65;;;;;;;17.11;45.46;99289.41;5111817;28;20080;-37
2022/04/17 02:43:59;;;;;;;6.40;3.42;;;;;;;16.64;47.19;99289.25;5111811;28;20042;-37
2022/04/17 02:49:22;;;;;;;6.55;3.83;;;;;;;17.31;45.96;99283.41;5064291;28;20089;-37
2022/04/17 02:51:48;;;;;;;6.68;3.88;;;;;;;16.60;47.46;99273.66;5093222;28;20507;-37
2022/04/17 02:54:13;;;;;;;5.70;3.83;;;;;;;16.56;46.75;99272.56;5111589;28;20024;-37
2022/04/17 02:56:39;;;;;;;7.25;3.90;;;;;;;17.01;45.54;99273.22;5111500;28;20031;-37
2022/04/17 02:59:04;;;;;;;7.35;4.10;;;;;;;16.44;46.84;99274.56;5111506;28;20023;-37
2022/04/17 03:06:57;;;;;;;6.78;3.70;;;;;;;16.56;45.67;99280.63;5111048;28;20108;-37
2022/04/17 03:09:24;;;;;;;7.57;3.90;;;;;;;16.80;45.84;99281.09;5111214;28;20111;-37
2022/04/17 03:11:49;;;;;;;6.63;4.03;;;;;;;17.02;44.99;99280.22;5110787;28;20030;-37
2022/04/17 03:14:14;;;;;;;6.22;3.88;;;;;;;16.42;45.59;99282.88;5110849;28;20509;-37
2022/04/17 03:16:40;;;;;;;5.47;4.13;;;;;;;16.61;45.60;99282.53;5111212;28;20478;-37
2022/04/17 03:19:06;;;;;;;4.43;3.50;;;;;;;17.29;44.32;99290.91;5111153;28;20024;-37
2022/04/17 03:21:32;;;;;;;6.95;4.15;;;;;;;16.36;45.80;99289.25;5110875;28;20082;-37
2022/04/17 03:23:58;;;;;;;8.18;3.60;;;;;;;16.01;46.21;99295.84;5111092;28;20027;-37
2022/04/17 03:26:23;;;;;;;6.80;3.72;;;;;;;16.18;45.78;99292.28;5110740;28;20106;-37
2022/04/17 03:28:48;;;;;;;5.65;3.80;;;;;;;16.32;45.58;99296.19;5110774;28;20114;-37
2022/04/17 03:31:14;;;;;;;4.90;3.30;;;;;;;15.61;47.82;99314.84;5111041;28;20042;-37
2022/04/17 03:33:39;;;;;;;6.00;3.47;;;;;;;15.78;46.96;99307.66;5110735;28;20020;-37
2022/04/17 03:36:05;;;;;;;6.18;3.63;;;;;;;15.89;47.62;99302.41;5111171;28;20119;-37
2022/04/17 03:38:30;;;;;;;7.50;3.97;;;;;;;15.63;49.01;99308.22;5111159;28;20020;-37
2022/04/17 03:40:56;;;;;;;5.68;3.80;;;;;;;15.68;50.00;99309.34;5110935;28;20023;-37
2022/04/17 03:43:23;;;;;;;7.38;3.97;;;;;;;15.43;51.32;99314.09;5110192;28;20019;-37
2022/04/17 03:45:49;;;;;;;8.95;4.20;;;;;;;14.90;53.34;99328.78;5110146;28;20047;-37
2022/04/17 03:48:17;;;;;;;10.57;4.30;;;;;;;15.24;53.80;99316.22;5110493;28;20141;-37
2022/04/17 03:50:43;;;;;;;8.57;4.30;;;;;;;15.05;54.36;99322.88;5110569;28;20051;-37
2022/04/17 03:53:08;;;;;;;7.03;4.60;;;;;;;14.84;55.56;99322.53;5110290;28;20047;-37
2022/04/17 03:55:35;;;;;;;6.97;4.75;;;;;;;15.05;56.55;99317.50;5110509;28;20047;-37
2022/04/17 03:58:02;;;;;;;7.28;4.68;;;;;;;14.96;57.79;99335.03;5110337;28;20024;-37
2022/04/17 04:00:27;;;;;;;6.32;4.90;;;;;;;14.83;58.19;99331.63;5110593;28;20024;-37
2022/04/17 04:02:53;;;;;;;11.10;5.60;;;;;;;14.52;59.14;99330.22;5110292;28;20038;-37
2022/04/17 04:05:19;;;;;;;7.85;5.60;;;;;;;14.28;61.81;99341.00;5110116;28;20016;-37
2022/04/17 04:07:45;;;;;;;7.78;6.07;;;;;;;14.16;62.42;99331.38;5110479;28;20046;-37
2022/04/17 04:10:10;;;;;;;9.25;5.93;;;;;;;14.31;62.95;99355.78;5110384;28;20044;-37
2022/04/17 04:12:37;;;;;;;9.63;6.10;;;;;;;14.24;63.91;99350.56;5109914;28;20023;-37
2022/04/17 04:15:04;;;;;;;8.40;6.28;;;;;;;13.94;65.30;99340.03;5109885;28;20031;-37
2022/04/17 04:17:29;;;;;;;8.48;6.57;;;;;;;14.18;65.92;99342.66;5111012;28;20024;-37
2022/04/17 04:19:55;;;;;;;9.60;7.05;;;;;;;14.54;64.07;99341.50;5114008;28;20125;-44
2022/04/17 04:22:21;;;;;;;9.82;7.03;;;;;;;13.88;66.36;99341.81;5114187;28;20020;-45
2022/04/17 04:24:46;;;;;;;12.30;6.85;;;;;;;13.80;67.89;99352.88;5114079;28;20148;-44
2022/04/17 04:29:56;;;;;;;10.13;7.55;;;;;;;13.41;70.17;99352.50;5114416;28;20042;-47
2022/04/17 04:32:21;;;;;;;9.23;7.03;;;;;;;13.62;69.98;99369.03;5114065;28;20028;-45
2022/04/17 04:34:48;;;;;;;11.45;7.13;;;;;;;13.66;70.85;99365.63;5113768;28;20020;-44
2022/04/17 04:37:14;;;;;;;9.63;7.20;;;;;;;13.60;71.21;99366.56;5113767;28;20456;-44
2022/04/17 04:39:39;;;;;;;10.10;8.30;;;;;;;13.32;73.33;99369.13;5113872;28;20045;-44
2022/04/17 04:42:05;;;;;;;15.93;10.82;;;;;;;13.92;70.27;99374.25;5113726;28;20502;-44
2022/04/17 04:44:30;;;;;;;9.48;7.70;;;;;;;13.44;71.67;99376.09;5113662;28;20023;-45
2022/04/17 04:46:56;;;;;;;12.45;7.88;;;;;;;13.35;71.67;99374.00;5113786;28;20415;-44
2022/04/17 04:49:30;;;;;;;9.30;7.95;;;;;;;13.72;70.63;99368.44;5113400;28;20368;-45
2022/04/17 04:52:00;;;;;;;15.00;8.27;;;;;;;13.14;73.91;99378.00;5113761;28;20042;-45
2022/04/17 04:54:27;;;;;;;12.35;8.80;;;;;;;12.75;75.59;99381.00;5113299;28;20459;-44
2022/04/17 04:56:52;;;;;;;12.60;8.40;;;;;;;13.25;74.45;99377.19;5113496;28;20061;-45
2022/04/17 04:59:18;;;;;;;10.50;7.93;;;;;;;12.98;73.89;99374.13;5113225;28;20027;-46
2022/04/17 05:01:44;;;;;;;12.85;8.50;;;;;;;13.02;74.70;99388.63;5113475;28;20023;-46
2022/04/17 05:04:09;;;;;;;11.20;8.35;;;;;;;13.16;74.25;99378.59;5112906;28;20483;-44
2022/04/17 05:06:35;;;;;;;10.50;8.10;;;;;;;12.80;75.46;99383.81;5112893;28;20059;-44
2022/04/17 05:09:00;;;;;;;10.63;8.00;;;;;;;12.82;76.45;99389.75;5112660;28;20023;-44
2022/04/17 05:11:25;;;;;;;12.15;8.50;;;;;;;13.35;75.42;99396.19;5112760;28;20103;-45
2022/04/17 05:13:51;;;;;;;11.30;8.40;;;;;;;12.81;75.39;99398.81;5112505;28;20455;-45
2022/04/17 05:16:16;;;;;;;13.18;8.90;;;;;;;12.57;78.21;99397.06;5112407;28;20404;-45
2022/04/17 05:18:42;;;;;;;11.38;8.70;;;;;;;12.85;76.57;99399.97;5092425;28;20188;-44
2022/04/17 05:21:08;;;;;;;12.05;9.57;;;;;;;12.71;78.59;99411.88;5092288;28;20036;-45
2022/04/17 05:23:36;;;;;;;12.43;9.82;;;;;;;12.83;78.58;99415.41;5092385;28;20036;-44
2022/04/17 05:26:05;;;;;;;15.15;10.38;;;;;;;12.71;79.26;99412.66;5092217;28;20443;-45
2022/04/17 05:28:31;;;;;;;10.68;8.50;;;;;;;12.72;78.98;99389.47;5091856;28;20402;-36
2022/04/17 05:31:01;;;;;;;13.68;9.55;;;;;;;12.33;80.88;99407.59;5091539;28;20106;-37
2022/04/17 05:33:26;;;;;;;;;;;;;;;12.68;80.48;99410.47;5105754;28;20441;-37
2022/04/17 05:35:52;;;;;;;16.75;10.23;;;;;;;12.74;80.55;99408.75;5111286;28;19916;-37
2022/04/17 05:38:18;;;;;;;14.40;9.63;;;;;;;12.28;81.63;99402.13;5111771;28;20487;-37
2022/04/17 05:40:50;;;;;;;12.35;10.23;;;;;;;12.77;82.57;99412.81;5111575;28;20145;-37
2022/04/17 05:43:17;;;;;;;17.25;10.32;;;;;;;12.71;81.44;99419.88;5111209;28;20103;-37
2022/04/17 05:45:42;;;;;;;13.02;9.45;;;;;;;12.19;82.88;99424.81;5111168;28;20012;-38
2022/04/17 05:48:11;;;;;;;16.88;10.57;;;;;;;12.59;82.00;99419.81;5111495;28;20011;-37
2022/04/17 05:50:38;;;;;;;14.98;11.40;;;;;;;12.65;81.16;99418.91;5110790;28;20023;-36
2022/04/17 05:53:04;;;;;;;15.25;11.43;;;;;;;12.44;83.11;99416.72;5111248;28;20400;-38
2022/04/17 05:55:30;;;;;;;16.05;13.73;;;;;;;12.28;85.21;99415.44;5111250;28;20016;-38
2022/04/17 05:57:55;;;;;;;18.95;14.27;;;;;;;12.71;82.06;99411.88;5111831;28;20023;-37
2022/04/17 06:00:21;;;;;;;16.80;12.98;;;;;;;12.34;83.26;99422.59;5111599;28;20114;-36
2022/04/17 06:02:48;;;;;;;18.35;14.43;;;;;;;12.23;84.18;99410.78;5111080;28;20027;-36
2022/04/17 06:05:15;;;;;;;17.02;13.30;;;;;;;12.45;83.70;99407.66;5111150;28;20052;-36
2022/04/17 06:07:41;;;;;;;13.32;10.75;;;;;;;12.24;82.59;99395.59;5111386;28;20028;-38
2022/04/17 06:10:12;;;;;;;13.65;10.38;;;;;;;11.96;84.33;99404.94;5111043;28;20025;-38
2022/04/17 06:12:38;;;;;;;18.13;12.40;;;;;;;12.51;87.12;99404.13;5110430;28;20035;-38
2022/04/17 06:15:06;;;;;;;15.13;11.40;;;;;;;12.84;81.45;99427.72;5110056;27;20032;-36
2022/04/17 06:17:41;;;;;;;16.02;11.30;;;;;;;12.12;84.83;99422.19;5093705;28;20499;-38
2022/04/17 06:20:09;;;;;;;12.00;9.70;;;;;;;11.55;85.65;99408.97;5109855;28;20023;-38
2022/04/17 06:22:35;;;;;;;14.93;10.75;;;;;;;11.84;86.22;99426.16;5109853;28;20035;-38
2022/04/17 06:25:06;;;;;;;15.77;10.98;;;;;;;11.95;85.84;99411.28;5111048;28;20094;-38
2022/04/17 06:27:48;;;;;;;13.20;10.50;;;;;;;11.79;86.16;99401.19;5111249;28;20032;-37
2022/04/17 06:30:18;;;;;;;14.02;10.82;;;;;;;11.54;87.77;99426.00;5110739;28;20023;-38
2022/04/17 06:32:44;;;;;;;13.38;10.50;;;;;;;11.60;87.00;99406.47;5109943;28;20600;-37
2022/04/17 06:35:12;;;;;;;14.55;10.73;;;;;;;11.58;87.85;99407.72;5109476;28;20020;-38
2022/04/17 06:37:55;;;;;;;15.70;11.43;;;;;;;11.37;88.27;99390.28;5109809;28;20398;-37
2022/04/17 06:40:23;;;;;;;16.45;11.82;;;;;;;11.55;88.07;99401.78;5108279;28;20038;-37
2022/04/17 06:42:50;;;;;;;16.40;12.15;;;;;;;11.67;89.04;99399.22;5107023;28;20019;-37
2022/04/17 06:45:17;;;;;;;17.80;12.68;;;;;;;11.86;88.40;99407.25;5109211;28;20019;-37
2022/04/17 06:47:43;;;;;;;15.50;11.73;;;;;;;12.03;85.55;99405.69;5109343;28;20019;-38
2022/04/17 06:50:08;;;;;;;15.98;11.73;;;;;;;11.83;87.47;99397.84;5109961;28;20023;-37
2022/04/17 06:52:34;;;;;;;16.45;12.38;;;;;;;11.93;88.29;99400.84;5109367;28;20020;-38
2022/04/17 06:54:59;;;;;;;16.30;12.15;;;;;;;11.92;87.01;99404.56;5109828;28;20020;-37
2022/04/17 06:57:33;;;;;;;19.08;13.20;;;;;;;12.03;87.31;99404.84;5110922;28;20106;-37
2022/04/17 07:00:10;;;;;;;18.13;13.20;;;;;;;12.09;87.79;99410.13;5110958;28;20171;-38
2022/04/17 07:02:37;;;;;;;19.02;13.57;;;;;;;12.04;87.68;99411.84;5109404;28;20084;-38
2022/04/17 07:05:03;;;;;;;19.50;13.70;;;;;;;11.97;87.91;99398.56;5110105;28;20040;-38
2022/04/17 07:07:28;;;;;;;19.67;13.93;;;;;;;12.09;87.40;99407.47;5110331;28;20038;-38
2022/04/17 07:09:54;;;;;;;18.90;14.20;;;;;;;12.09;87.30;99414.66;5110666;28;20020;-37
2022/04/17 07:12:20;;;;;;;19.17;13.40;;;;;;;12.01;87.65;99410.41;5109699;28;20102;-37
2022/04/17 07:14:47;;;;;;;29.38;21.02;;;;;;;11.81;88.21;99413.25;5109380;28;20020;-37
2022/04/17 07:17:13;;;;;;;18.45;14.27;;;;;;;11.93;89.01;99419.50;5109721;28;20095;-37
2022/04/17 07:19:38;;;;;;;18.48;14.00;;;;;;;11.80;89.85;99418.78;5110232;28;20016;-38
2022/04/17 07:22:04;;;;;;;19.23;14.50;;;;;;;11.96;88.37;99423.59;5110229;28;20012;-37
2022/04/17 07:24:29;;;;;;;19.25;13.88;;;;;;;12.02;87.34;99419.25;5110315;28;20038;-37
2022/04/17 07:26:56;;;;;;;20.35;15.60;;;;;;;12.08;88.13;99429.00;5109678;28;20019;-37
2022/04/17 07:29:22;;;;;;;21.05;15.45;;;;;;;12.25;86.87;99426.59;5110284;28;20023;-36
2022/04/17 07:31:50;;;;;;;19.35;14.43;;;;;;;12.08;87.60;99426.34;5107900;28;20448;-38
2022/04/17 07:34:18;;;;;;;22.65;15.65;;;;;;;12.11;87.00;99423.25;5110614;28;20475;-37
2022/04/17 07:36:43;;;;;;;23.65;16.60;;;;;;;11.80;88.04;99430.25;5110268;28;20159;-37
2022/04/17 07:39:09;;;;;;;22.73;14.77;;;;;;;11.72;88.82;99422.56;5110797;28;20095;-37
2022/04/17 07:41:34;;;;;;;21.77;15.85;;;;;;;11.92;88.73;99425.09;5113171;28;20042;-37
2022/04/17 07:43:59;;;;;;;22.25;15.82;;;;;;;11.96;88.48;99433.47;5110514;28;20090;-37
2022/04/17 07:46:25;;;;;;;21.35;15.45;;;;;;;11.72;89.77;99422.56;5123546;28;20019;-37
2022/04/17 07:48:51;;;;;;;20.83;15.55;;;;;;;11.75;90.50;99419.47;5096072;28;20407;-37
2022/04/17 07:51:16;;;;;;;25.33;17.08;;;;;;;12.00;89.84;99422.13;5113700;27;20026;-37
2022/04/17 07:53:42;;;;;;;22.98;17.10;;;;;;;11.93;89.46;99419.50;5134025;27;20068;-37
2022/04/17 07:56:08;;;;;;;21.85;17.30;;;;;;;12.29;88.16;99420.56;5134821;27;20457;-37
2022/04/17 07:58:34;;;;;;;22.00;16.83;;;;;;;12.44;87.49;99427.41;5122163;27;20546;-37
2022/04/17 08:01:10;;;;;;;23.27;17.45;;;;;;;12.33;86.60;99412.94;5114487;28;20015;-37
2022/04/17 08:03:45;;;;;;;24.85;17.05;;;;;;;12.20;88.03;99411.22;5114273;28;20518;-37
2022/04/17 08:06:15;;;;;;;21.25;17.45;;;;;;;12.18;87.56;99421.31;5114027;28;20038;-37
2022/04/17 08:08:41;;;;;;;26.75;18.88;;;;;;;12.15;87.37;99402.25;5114010;28;20037;-37
2022/04/17 08:11:08;;;;;;;23.85;18.42;;;;;;;12.08;88.25;99402.34;5102661;28;20044;-37
2022/04/17 08:13:35;;;;;;;23.85;18.33;;;;;;;11.89;89.04;99398.81;5095597;28;20034;-37
2022/04/17 08:16:02;;;;;;;23.67;19.17;;;;;;;12.04;88.62;99399.31;5112970;28;20015;-37
2022/04/17 08:18:27;;;;;;;26.33;19.10;;;;;;;11.95;88.98;99392.63;5113666;28;20047;-36
2022/04/17 08:20:52;;;;;;;25.27;18.80;;;;;;;12.03;89.07;99388.84;5113611;28;20453;-37
2022/04/17 08:23:18;;;;;;;24.73;18.88;;;;;;;12.09;89.61;99391.47;5114371;28;20018;-37
2022/04/17 08:25:44;;;;;;;22.52;17.67;;;;;;;12.14;88.64;99385.44;5113626;28;20019;-38
2022/04/17 08:28:10;;;;;;;24.38;18.00;;;;;;;12.45;87.12;99394.31;5093889;28;20032;-37
2022/04/17 08:30:37;;;;;;;20.65;15.70;;;;;;;12.79;83.56;99389.38;5110908;28;20020;-39
2022/04/17 08:33:05;;;;;;;21.30;17.10;;;;;;;12.54;85.38;99400.19;5092942;28;20044;-38
2022/04/17 08:35:31;;;;;;;20.58;16.42;;;;;;;12.61;85.76;99401.72;5111263;28;20031;-38
2022/04/17 08:38:03;;;;;;;20.83;16.08;;;;;;;12.44;86.89;99406.84;5111400;28;20023;-38
2022/04/17 08:40:29;;;;;;;20.08;16.08;;;;;;;12.39;87.19;99400.56;5112244;28;20050;-38
2022/04/17 08:42:58;;;;;;;20.75;15.80;;;;;;;12.37;87.69;99398.13;5112076;28;20031;-37
2022/04/17 08:45:25;;;;;;;19.92;15.60;;;;;;;12.18;88.89;99378.63;5112328;28;20028;-37
2022/04/17 08:47:51;;;;;;;21.98;16.70;;;;;;;12.42;88.55;99392.13;5113886;28;20023;-38
2022/04/17 08:50:18;;;;;;;22.10;16.15;;;;;;;12.49;87.52;99390.19;5114071;28;20031;-38
2022/04/17 08:52:53;;;;;;;18.25;14.30;;;;;;;12.40;86.72;99384.34;5113475;28;20510;-38
2022/04/17 08:55:20;;;;;;;18.58;14.85;;;;;;;12.65;85.09;99388.75;5113306;28;20024;-38
2022/04/17 08:57:45;;;;;;;18.10;13.73;;;;;;;12.28;88.45;99378.94;5113126;28;20153;-37
2022/04/17 09:00:16;;;;;;;19.23;14.95;;;;;;;12.29;88.75;99374.41;5113010;28;20103;-38
2022/04/17 09:02:42;;;;;;;18.77;13.90;;;;;;;12.33;87.45;99373.72;5113116;28;20032;-38
2022/04/17 09:05:10;;;;;;;20.05;14.52;;;;;;;12.54;86.71;99368.16;5112399;28;20054;-38
2022/04/17 09:07:49;;;;;;;19.80;14.68;;;;;;;12.32;88.83;99366.78;5113490;28;20045;-38
2022/04/17 09:10:29;;;;;;;19.52;13.93;;;;;;;12.17;88.17;99368.22;5113902;28;20106;-38
2022/04/17 09:13:03;;;;;;;19.15;14.90;;;;;;;12.44;87.74;99358.81;5113134;28;20566;-38
2022/04/17 09:15:30;;;;;;;20.17;14.23;;;;;;;12.50;86.86;99371.25;5112788;28;20035;-38
2022/04/17 09:17:56;;;;;;;17.23;13.98;;;;;;;12.39;88.48;99376.53;5112856;28;20028;-37
2022/04/17 09:20:24;;;;;;;17.77;13.95;;;;;;;12.35;87.18;99370.84;5113252;28;20032;-37
2022/04/17 09:22:59;;;;;;;19.95;15.05;;;;;;;12.26;87.33;99367.69;5112784;28;20498;-37
2022/04/17 09:25:26;;;;;;;15.07;12.15;;;;;;;12.13;88.42;99368.63;5112703;28;20032;-38
2022/04/17 09:28:01;;;;;;;17.08;12.80;;;;;;;12.04;89.61;99369.97;5113268;28;20024;-37
2022/04/17 09:30:34;;;;;;;16.50;12.10;;;;;;;12.12;88.38;99371.53;5112940;28;20130;-37
2022/04/17 09:33:11;;;;;;;16.35;12.05;;;;;;;12.35;87.57;99372.69;5112731;28;20034;-37
2022/04/17 09:35:37;;;;;;;16.00;12.07;;;;;;;12.07;89.29;99371.38;5112043;28;20038;-37
2022/04/17 09:38:05;;;;;;;17.42;12.68;;;;;;;12.14;87.50;99364.09;5113047;28;20126;-37
2022/04/17 09:40:31;;;;;;;17.73;11.95;;;;;;;12.02;89.16;99353.38;5112811;28;20073;-37
2022/04/17 09:43:19;;;;;;;18.10;13.23;;;;;;;12.09;88.72;99351.47;5112101;28;20063;-37
2022/04/17 09:46:07;;;;;;;15.52;12.43;;;;;;;12.11;89.23;99354.72;5111645;28;20024;-37
2022/04/17 09:48:38;;;;;;;14.95;11.63;;;;;;;11.85;89.99;99345.13;5112594;28;20495;-37
2022/04/17 09:51:23;;;;;;;16.90;12.13;;;;;;;11.83;91.14;99352.53;5112354;28;20051;-37
2022/04/17 09:54:02;;;;;;;15.50;11.77;;;;;;;11.82;91.45;99342.91;5111944;28;20080;-37
2022/04/17 09:56:32;;;;;;;15.02;11.00;;;;;;;11.78;90.47;99341.69;5111667;28;20032;-37
2022/04/17 09:58:58;;;;;;;17.83;11.45;;;;;;;11.96;89.72;99340.13;5111472;28;20028;-37
2022/04/17 10:01:24;;;;;;;14.82;10.75;;;;;;;11.81;92.03;99332.47;5093213;28;20058;-37
2022/04/17 10:03:50;;;;;;;13.45;9.10;;;;;;;11.74;90.96;99332.50;5111206;28;20093;-37
2022/04/17 10:06:16;;;;;;;12.60;8.98;;;;;;;11.66;92.08;99316.81;5111129;28;20031;-37
2022/04/17 10:08:44;;;;;;;11.50;8.60;;;;;;;11.63;90.53;99317.25;5111769;28;20108;-37
2022/04/17 10:11:12;;;;;;;12.60;8.77;;;;;;;12.00;89.13;99307.44;5111793;28;20335;-37
2022/04/17 10:13:39;;;;;;;9.35;7.85;;;;;;;11.90;89.29;99323.16;5111781;28;20034;-37
2022/04/17 10:16:07;;;;;;;8.45;6.07;;;;;;;11.46;89.91;99331.16;5110785;28;20119;-37
2022/04/17 10:18:34;;;;;;;9.50;6.72;;;;;;;11.61;90.39;99319.31;5111706;28;20032;-37
2022/04/17 10:21:01;;;;;;;7.70;5.93;;;;;;;11.75;89.27;99310.16;5111632;28;20348;-37
2022/04/17 10:23:28;;;;;;;7.05;6.10;;;;;;;11.78;86.75;99311.56;5111688;28;20073;-37
2022/04/17 10:25:58;;;;;;;7.38;6.38;;;;;;;11.63;87.88;99310.09;5111296;28;20506;-37
2022/04/17 10:28:29;;;;;;;7.70;5.80;;;;;;;11.48;89.19;99304.28;5111396;28;20020;-37
2022/04/17 10:31:17;;;;;;;7.47;5.93;;;;;;;11.28;88.51;99313.28;5111364;28;20518;-37
2022/04/17 10:34:22;;;;;;;7.13;5.60;;;;;;;11.47;88.66;99326.63;5111239;28;20077;-37
2022/04/17 10:37:25;;;;;;;5.97;4.53;;;;;;;11.23;88.05;99329.09;5111417;28;20027;-37
2022/04/17 10:39:57;;;;;;;6.20;5.30;;;;;;;11.53;87.65;99344.41;5111041;28;20146;-37
2022/04/17 10:42:34;;;;;;;11.68;6.28;;;;;;;11.35;88.12;99343.34;5111701;28;20023;-37
2022/04/17 10:45:09;;;;;;;9.95;7.00;;;;;;;11.46;87.84;99338.31;5111322;28;20015;-37
2022/04/17 10:47:34;;;;;;;9.23;6.82;;;;;;;11.23;89.16;99341.59;5111178;28;20393;-37
2022/04/17 10:50:07;;;;;;;9.38;6.53;;;;;;;11.25;87.84;99340.34;5111065;28;20031;-37
2022/04/17 10:52:33;;;;;;;9.52;7.10;;;;;;;11.16;89.35;99349.66;5111414;28;20054;-37
2022/04/17 10:55:10;;;;;;;9.02;6.30;;;;;;;10.83;88.65;99347.19;5111291;28;20028;-37
2022/04/17 10:57:46;;;;;;;8.15;5.65;;;;;;;10.80;89.17;99337.81;5111539;28;20016;-37
2022/04/17 11:00:32;;;;;;;6.80;5.18;;;;;;;10.61;89.40;99350.19;5111035;28;20079;-37
2022/04/17 11:03:01;;;;;;;8.02;5.28;;;;;;;10.64;88.88;99370.25;5109882;28;20028;-37
2022/04/17 11:08:26;;;;;;;4.63;3.90;;;;;;;10.31;87.72;99363.22;5101280;28;20386;-36
2022/04/17 11:10:54;;;;;;;5.20;4.63;;;;;;;10.62;87.68;99362.47;5099003;28;20034;-37
2022/04/17 11:13:24;;;;;;;6.13;5.20;;;;;;;10.50;87.40;99374.81;5091622;28;20020;-37
2022/04/17 11:15:55;;;;;;;10.60;5.50;;;;;;;10.33;88.93;99346.03;5110756;28;20026;-37
2022/04/17 11:18:24;;;;;;;6.68;5.78;;;;;;;10.25;90.20;99351.56;5110619;28;20032;-37
2022/04/17 11:20:54;;;;;;;5.30;4.45;;;;;;;10.19;88.50;99365.72;5110537;28;20547;-37
2022/04/17 11:23:48;;;;;;;5.88;4.72;;;;;;;10.22;89.20;99351.97;5111126;28;20096;-37
2022/04/17 11:26:14;;;;;;;7.80;5.13;;;;;;;10.20;90.52;99350.56;5099541;28;20081;-37
2022/04/17 11:28:40;;;;;;;6.88;5.00;;;;;;;10.37;90.03;99357.88;5115881;28;20027;-36
2022/04/17 11:31:06;;;;;;;6.65;5.15;;;;;;;10.38;88.85;99348.06;5114851;28;20403;-37
2022/04/17 11:33:31;;;;;;;6.65;5.60;;;;;;;10.46;88.55;99345.16;5114904;28;20023;-38
2022/04/17 11:35:58;;;;;;;7.13;6.03;;;;;;;10.29;88.82;99343.97;5114088;28;20402;-38
2022/04/17 11:38:24;;;;;;;6.97;5.72;;;;;;;9.77;89.71;99343.94;5114442;28;20510;-37
2022/04/17 11:40:50;;;;;;;10.70;6.50;;;;;;;9.74;89.19;99329.22;5114620;28;20037;-38
2022/04/17 11:43:17;;;;;;;7.68;6.07;;;;;;;9.57;90.33;99350.09;5114147;28;20416;-37
2022/04/17 11:45:44;;;;;;;7.35;6.60;;;;;;;9.79;89.39;99336.59;5114382;28;20439;-37